sensor_id;sensor_type;location;lat;lon;timestamp;pressure;altitude;pressure_sealevel;temperature;humidity
31538;BME280;18147;51.952;6.146;2023-04-15T00:01:20;100779.91;;;7.88;87.75
31538;BME280;18147;51.952;6.146;2023-04-15T00:03:47;100773.00;;;7.85;88.31
31538;BME280;18147;51.952;6.146;2023-04-15T00:06:12;100775.19;;;7.77;88.78
31538;BME280;18147;51.952;6.146;2023-04-15T00:08:40;100781.28;;;7.62;90.65
31538;BME280;18147;51.952;6.146;2023-04-15T00:11:06;100780.00;;;7.53;92.10
31538;BME280;18147;51.952;6.146;2023-04-15T00:13:31;100781.53;;;7.74;91.11
31538;BME280;18147;51.952;6.146;2023-04-15T00:15:58;100774.78;;;7.34;92.90
31538;BME280;18147;51.952;6.146;2023-04-15T00:18:23;100776.47;;;7.35;93.54
31538;BME280;18147;51.952;6.146;2023-04-15T00:20:49;100784.50;;;7.16;97.13
31538;BME280;18147;51.952;6.146;2023-04-15T00:23:15;100781.44;;;7.07;98.77
31538;BME280;18147;51.952;6.146;2023-04-15T00:25:40;100779.13;;;7.35;98.59
31538;BME280;18147;51.952;6.146;2023-04-15T00:28:06;100782.72;;;7.51;97.36
31538;BME280;18147;51.952;6.146;2023-04-15T00:30:33;100782.31;;;7.59;95.94
31538;BME280;18147;51.952;6.146;2023-04-15T00:33:00;100785.81;;;7.77;94.86
31538;BME280;18147;51.952;6.146;2023-04-15T00:35:26;100778.53;;;7.81;96.15
31538;BME280;18147;51.952;6.146;2023-04-15T00:37:52;100778.81;;;7.92;93.60
31538;BME280;18147;51.952;6.146;2023-04-15T00:40:20;100780.72;;;7.90;93.95
31538;BME280;18147;51.952;6.146;2023-04-15T00:42:46;100780.53;;;7.93;94.40
31538;BME280;18147;51.952;6.146;2023-04-15T00:45:12;100776.53;;;7.16;95.43
31538;BME280;18147;51.952;6.146;2023-04-15T00:47:40;100776.22;;;7.57;97.32
31538;BME280;18147;51.952;6.146;2023-04-15T00:50:07;100783.81;;;7.47;98.07
31538;BME280;18147;51.952;6.146;2023-04-15T00:52:33;100790.44;;;7.56;98.39
31538;BME280;18147;51.952;6.146;2023-04-15T00:54:59;100782.16;;;7.27;99.94
31538;BME280;18147;51.952;6.146;2023-04-15T00:57:25;100781.78;;;7.35;100.00
31538;BME280;18147;51.952;6.146;2023-04-15T00:59:54;100780.59;;;7.41;100.00
31538;BME280;18147;51.952;6.146;2023-04-15T01:02:21;100779.38;;;7.31;100.00
31538;BME280;18147;51.952;6.146;2023-04-15T01:04:47;100786.47;;;7.30;100.00
31538;BME280;18147;51.952;6.146;2023-04-15T01:07:12;100776.53;;;7.16;100.00
31538;BME280;18147;51.952;6.146;2023-04-15T01:09:39;100787.56;;;7.43;100.00
31538;BME280;18147;51.952;6.146;2023-04-15T01:12:06;100791.13;;;7.42;100.00
31538;BME280;18147;51.952;6.146;2023-04-15T01:14:33;100786.47;;;7.30;100.00
31538;BME280;18147;51.952;6.146;2023-04-15T01:16:59;100783.59;;;7.35;100.00
31538;BME280;18147;51.952;6.146;2023-04-15T01:19:25;100788.56;;;7.41;100.00
31538;BME280;18147;51.952;6.146;2023-04-15T01:21:51;100788.09;;;7.15;100.00
31538;BME280;18147;51.952;6.146;2023-04-15T01:24:18;100788.72;;;7.03;100.00
31538;BME280;18147;51.952;6.146;2023-04-15T01:26:44;100787.56;;;7.09;100.00
31538;BME280;18147;51.952;6.146;2023-04-15T01:29:09;100788.81;;;7.19;100.00
31538;BME280;18147;51.952;6.146;2023-04-15T01:31:35;100782.78;;;7.15;100.00
31538;BME280;18147;51.952;6.146;2023-04-15T01:34:01;100786.31;;;7.16;100.00
31538;BME280;18147;51.952;6.146;2023-04-15T01:36:27;100792.00;;;7.25;100.00
31538;BME280;18147;51.952;6.146;2023-04-15T01:38:55;100788.97;;;7.50;100.00
31538;BME280;18147;51.952;6.146;2023-04-15T01:41:25;100784.41;;;7.52;100.00
31538;BME280;18147;51.952;6.146;2023-04-15T01:43:52;100777.44;;;7.34;100.00
31538;BME280;18147;51.952;6.146;2023-04-15T01:46:18;100780.94;;;7.35;100.00
31538;BME280;18147;51.952;6.146;2023-04-15T01:48:44;100785.06;;;7.40;100.00
31538;BME280;18147;51.952;6.146;2023-04-15T01:51:10;100790.13;;;7.27;100.00
31538;BME280;18147;51.952;6.146;2023-04-15T01:53:36;100784.81;;;7.27;100.00
31538;BME280;18147;51.952;6.146;2023-04-15T01:56:01;100791.78;;;7.30;100.00
31538;BME280;18147;51.952;6.146;2023-04-15T01:58:27;100788.88;;;7.17;100.00
31538;BME280;18147;51.952;6.146;2023-04-15T02:00:53;100794.78;;;7.22;100.00
31538;BME280;18147;51.952;6.146;2023-04-15T02:03:19;100794.50;;;6.75;100.00
31538;BME280;18147;51.952;6.146;2023-04-15T02:05:45;100796.94;;;6.80;100.00
31538;BME280;18147;51.952;6.146;2023-04-15T02:08:10;100798.97;;;6.92;100.00
31538;BME280;18147;51.952;6.146;2023-04-15T02:10:38;100792.47;;;7.16;100.00
31538;BME280;18147;51.952;6.146;2023-04-15T02:13:04;100798.22;;;7.07;100.00
31538;BME280;18147;51.952;6.146;2023-04-15T02:15:31;100801.72;;;7.08;100.00
31538;BME280;18147;51.952;6.146;2023-04-15T02:17:58;100808.16;;;6.85;100.00
31538;BME280;18147;51.952;6.146;2023-04-15T02:20:25;100805.19;;;6.73;100.00
31538;BME280;18147;51.952;6.146;2023-04-15T02:22:50;100815.28;;;6.28;100.00
31538;BME280;18147;51.952;6.146;2023-04-15T02:25:17;100822.41;;;6.07;100.00
31538;BME280;18147;51.952;6.146;2023-04-15T02:27:42;100831.84;;;6.33;100.00
31538;BME280;18147;51.952;6.146;2023-04-15T02:30:11;100824.09;;;6.47;100.00
31538;BME280;18147;51.952;6.146;2023-04-15T02:32:37;100818.72;;;6.48;100.00
31538;BME280;18147;51.952;6.146;2023-04-15T02:35:07;100824.59;;;6.36;100.00
31538;BME280;18147;51.952;6.146;2023-04-15T02:37:35;100822.09;;;6.33;100.00
31538;BME280;18147;51.952;6.146;2023-04-15T02:40:06;100823.28;;;6.26;100.00
31538;BME280;18147;51.952;6.146;2023-04-15T02:42:32;100830.28;;;6.27;100.00
31538;BME280;18147;51.952;6.146;2023-04-15T02:44:59;100831.69;;;5.96;100.00
31538;BME280;18147;51.952;6.146;2023-04-15T02:47:30;100832.91;;;6.29;100.00
31538;BME280;18147;51.952;6.146;2023-04-15T02:49:55;100837.09;;;6.14;100.00
31538;BME280;18147;51.952;6.146;2023-04-15T02:52:23;100844.03;;;6.16;100.00
31538;BME280;18147;51.952;6.146;2023-04-15T02:54:49;100832.28;;;6.22;100.00
31538;BME280;18147;51.952;6.146;2023-04-15T02:57:14;100838.28;;;6.07;100.00
31538;BME280;18147;51.952;6.146;2023-04-15T02:59:40;100845.25;;;6.09;100.00
31538;BME280;18147;51.952;6.146;2023-04-15T03:02:06;100848.66;;;5.91;100.00
31538;BME280;18147;51.952;6.146;2023-04-15T03:04:33;100845.22;;;5.89;100.00
31538;BME280;18147;51.952;6.146;2023-04-15T03:06:59;100840.34;;;6.00;100.00
31538;BME280;18147;51.952;6.146;2023-04-15T03:09:26;100847.03;;;6.09;100.00
31538;BME280;18147;51.952;6.146;2023-04-15T03:11:53;100843.84;;;6.01;100.00
31538;BME280;18147;51.952;6.146;2023-04-15T03:14:20;100839.34;;;5.82;100.00
31538;BME280;18147;51.952;6.146;2023-04-15T03:16:47;100842.91;;;5.81;100.00
31538;BME280;18147;51.952;6.146;2023-04-15T03:19:18;100850.47;;;5.70;100.00
31538;BME280;18147;51.952;6.146;2023-04-15T03:21:43;100856.75;;;5.88;100.00
31538;BME280;18147;51.952;6.146;2023-04-15T03:24:09;100847.53;;;5.98;100.00
31538;BME280;18147;51.952;6.146;2023-04-15T03:26:35;100851.41;;;6.10;100.00
31538;BME280;18147;51.952;6.146;2023-04-15T03:29:08;100854.78;;;6.13;100.00
31538;BME280;18147;51.952;6.146;2023-04-15T03:31:33;100864.03;;;5.62;100.00
31538;BME280;18147;51.952;6.146;2023-04-15T03:33:59;100862.44;;;5.58;100.00
31538;BME280;18147;51.952;6.146;2023-04-15T03:36:31;100865.66;;;5.44;100.00
31538;BME280;18147;51.952;6.146;2023-04-15T03:39:02;100868.19;;;5.26;100.00
31538;BME280;18147;51.952;6.146;2023-04-15T03:41:29;100871.00;;;5.43;100.00
31538;BME280;18147;51.952;6.146;2023-04-15T03:43:57;100873.66;;;5.43;100.00
31538;BME280;18147;51.952;6.146;2023-04-15T03:46:23;100887.44;;;5.29;100.00
31538;BME280;18147;51.952;6.146;2023-04-15T03:48:50;100880.69;;;5.22;100.00
31538;BME280;18147;51.952;6.146;2023-04-15T03:51:17;100880.13;;;5.14;100.00
31538;BME280;18147;51.952;6.146;2023-04-15T03:53:43;100892.06;;;5.02;100.00
31538;BME280;18147;51.952;6.146;2023-04-15T03:56:08;100882.78;;;5.14;100.00
31538;BME280;18147;51.952;6.146;2023-04-15T03:58:34;100892.59;;;5.10;100.00
31538;BME280;18147;51.952;6.146;2023-04-15T04:01:03;100897.72;;;4.93;100.00
31538;BME280;18147;51.952;6.146;2023-04-15T04:03:35;100906.31;;;4.98;100.00
31538;BME280;18147;51.952;6.146;2023-04-15T04:06:07;100897.75;;;4.91;100.00
31538;BME280;18147;51.952;6.146;2023-04-15T04:08:33;100898.81;;;5.09;100.00
31538;BME280;18147;51.952;6.146;2023-04-15T04:10:58;100896.97;;;4.89;100.00
31538;BME280;18147;51.952;6.146;2023-04-15T04:13:24;100902.84;;;4.96;100.00
31538;BME280;18147;51.952;6.146;2023-04-15T04:15:50;100910.09;;;4.91;100.00
31538;BME280;18147;51.952;6.146;2023-04-15T04:18:16;100908.81;;;5.01;100.00
31538;BME280;18147;51.952;6.146;2023-04-15T04:20:42;100906.66;;;5.11;100.00
31538;BME280;18147;51.952;6.146;2023-04-15T04:23:08;100917.16;;;4.90;100.00
31538;BME280;18147;51.952;6.146;2023-04-15T04:25:33;100918.44;;;4.80;100.00
31538;BME280;18147;51.952;6.146;2023-04-15T04:27:59;100919.94;;;4.87;100.00
31538;BME280;18147;51.952;6.146;2023-04-15T04:30:26;100922.97;;;4.77;100.00
31538;BME280;18147;51.952;6.146;2023-04-15T04:32:58;100932.16;;;4.66;100.00
31538;BME280;18147;51.952;6.146;2023-04-15T04:35:32;100932.22;;;4.65;100.00
31538;BME280;18147;51.952;6.146;2023-04-15T04:38:00;100934.19;;;4.83;100.00
31538;BME280;18147;51.952;6.146;2023-04-15T04:40:26;100939.06;;;4.71;100.00
31538;BME280;18147;51.952;6.146;2023-04-15T04:42:55;100951.94;;;4.80;100.00
31538;BME280;18147;51.952;6.146;2023-04-15T04:45:21;100954.13;;;4.92;100.00
31538;BME280;18147;51.952;6.146;2023-04-15T04:47:51;100944.44;;;4.91;100.00
31538;BME280;18147;51.952;6.146;2023-04-15T04:50:18;100946.88;;;4.97;100.00
31538;BME280;18147;51.952;6.146;2023-04-15T04:52:46;100958.22;;;4.99;100.00
31538;BME280;18147;51.952;6.146;2023-04-15T04:55:17;100950.41;;;4.96;100.00
31538;BME280;18147;51.952;6.146;2023-04-15T04:57:47;100953.28;;;5.13;100.00
31538;BME280;18147;51.952;6.146;2023-04-15T05:00:12;100954.56;;;4.80;100.00
31538;BME280;18147;51.952;6.146;2023-04-15T05:02:38;100965.72;;;4.88;100.00
31538;BME280;18147;51.952;6.146;2023-04-15T05:05:06;100965.03;;;4.83;100.00
31538;BME280;18147;51.952;6.146;2023-04-15T05:07:33;100967.53;;;4.86;100.00
31538;BME280;18147;51.952;6.146;2023-04-15T05:09:58;100965.91;;;5.05;100.00
31538;BME280;18147;51.952;6.146;2023-04-15T05:12:24;100964.84;;;4.87;100.00
31538;BME280;18147;51.952;6.146;2023-04-15T05:14:50;100970.97;;;5.11;100.00
31538;BME280;18147;51.952;6.146;2023-04-15T05:17:16;100973.50;;;5.14;100.00
31538;BME280;18147;51.952;6.146;2023-04-15T05:19:42;100981.50;;;5.35;100.00
31538;BME280;18147;51.952;6.146;2023-04-15T05:22:08;100977.91;;;5.37;100.00
31538;BME280;18147;51.952;6.146;2023-04-15T05:24:33;100985.22;;;5.53;100.00
31538;BME280;18147;51.952;6.146;2023-04-15T05:26:59;100986.44;;;5.66;100.00
31538;BME280;18147;51.952;6.146;2023-04-15T05:29:26;100984.44;;;5.71;100.00
31538;BME280;18147;51.952;6.146;2023-04-15T05:31:52;100992.28;;;5.74;100.00
31538;BME280;18147;51.952;6.146;2023-04-15T05:34:18;100985.94;;;6.00;100.00
31538;BME280;18147;51.952;6.146;2023-04-15T05:36:44;100990.00;;;6.29;100.00
31538;BME280;18147;51.952;6.146;2023-04-15T05:39:10;100983.63;;;6.33;100.00
31538;BME280;18147;51.952;6.146;2023-04-15T05:41:35;100984.53;;;6.32;100.00
31538;BME280;18147;51.952;6.146;2023-04-15T05:44:02;100987.50;;;6.65;100.00
31538;BME280;18147;51.952;6.146;2023-04-15T05:46:27;100990.59;;;6.75;100.00
31538;BME280;18147;51.952;6.146;2023-04-15T05:48:53;100997.00;;;6.90;100.00
31538;BME280;18147;51.952;6.146;2023-04-15T05:51:18;100998.22;;;7.01;100.00
31538;BME280;18147;51.952;6.146;2023-04-15T05:53:44;101008.84;;;7.39;100.00
31538;BME280;18147;51.952;6.146;2023-04-15T05:56:10;101015.09;;;7.38;100.00
31538;BME280;18147;51.952;6.146;2023-04-15T05:58:35;101009.47;;;7.44;100.00
31538;BME280;18147;51.952;6.146;2023-04-15T06:01:02;101017.28;;;7.47;100.00
31538;BME280;18147;51.952;6.146;2023-04-15T06:03:27;101021.06;;;7.61;100.00
31538;BME280;18147;51.952;6.146;2023-04-15T06:05:53;101027.31;;;7.96;100.00
31538;BME280;18147;51.952;6.146;2023-04-15T06:08:20;101032.06;;;7.53;100.00
31538;BME280;18147;51.952;6.146;2023-04-15T06:10:46;101031.84;;;8.11;100.00
31538;BME280;18147;51.952;6.146;2023-04-15T06:13:11;101035.28;;;8.13;100.00
31538;BME280;18147;51.952;6.146;2023-04-15T06:15:37;101048.22;;;7.85;100.00
31538;BME280;18147;51.952;6.146;2023-04-15T06:18:03;101045.81;;;7.97;100.00
31538;BME280;18147;51.952;6.146;2023-04-15T06:20:29;101052.63;;;8.03;100.00
31538;BME280;18147;51.952;6.146;2023-04-15T06:22:56;101049.22;;;8.18;100.00
31538;BME280;18147;51.952;6.146;2023-04-15T06:25:22;101053.41;;;8.05;100.00
31538;BME280;18147;51.952;6.146;2023-04-15T06:27:48;101058.75;;;7.86;100.00
31538;BME280;18147;51.952;6.146;2023-04-15T06:30:14;101063.31;;;7.84;100.00
31538;BME280;18147;51.952;6.146;2023-04-15T06:32:39;101068.81;;;7.98;100.00
31538;BME280;18147;51.952;6.146;2023-04-15T06:35:06;101074.91;;;8.18;100.00
31538;BME280;18147;51.952;6.146;2023-04-15T06:37:31;101068.13;;;8.29;100.00
31538;BME280;18147;51.952;6.146;2023-04-15T06:39:57;101080.94;;;8.21;100.00
31538;BME280;18147;51.952;6.146;2023-04-15T06:42:23;101080.19;;;8.37;100.00
31538;BME280;18147;51.952;6.146;2023-04-15T06:44:48;101085.91;;;8.10;100.00
31538;BME280;18147;51.952;6.146;2023-04-15T06:47:14;101088.81;;;8.05;100.00
31538;BME280;18147;51.952;6.146;2023-04-15T06:49:44;101097.03;;;8.18;100.00
31538;BME280;18147;51.952;6.146;2023-04-15T06:52:10;101104.16;;;8.35;100.00
31538;BME280;18147;51.952;6.146;2023-04-15T06:54:39;101096.34;;;8.32;100.00
31538;BME280;18147;51.952;6.146;2023-04-15T06:57:05;101097.63;;;8.42;100.00
31538;BME280;18147;51.952;6.146;2023-04-15T06:59:32;101101.94;;;8.45;100.00
31538;BME280;18147;51.952;6.146;2023-04-15T07:01:57;101098.72;;;8.73;100.00
31538;BME280;18147;51.952;6.146;2023-04-15T07:04:23;101100.94;;;8.65;100.00
31538;BME280;18147;51.952;6.146;2023-04-15T07:06:48;101107.72;;;8.53;100.00
31538;BME280;18147;51.952;6.146;2023-04-15T07:09:14;101102.56;;;8.67;100.00
31538;BME280;18147;51.952;6.146;2023-04-15T07:11:39;101105.41;;;8.97;100.00
31538;BME280;18147;51.952;6.146;2023-04-15T07:14:05;101110.91;;;8.94;100.00
31538;BME280;18147;51.952;6.146;2023-04-15T07:16:31;101117.03;;;9.29;100.00
31538;BME280;18147;51.952;6.146;2023-04-15T07:18:57;101116.44;;;9.24;100.00
31538;BME280;18147;51.952;6.146;2023-04-15T07:21:24;101124.88;;;9.48;100.00
31538;BME280;18147;51.952;6.146;2023-04-15T07:23:50;101132.91;;;9.80;100.00
31538;BME280;18147;51.952;6.146;2023-04-15T07:26:18;101133.50;;;9.85;100.00
31538;BME280;18147;51.952;6.146;2023-04-15T07:28:43;101130.16;;;9.66;100.00
31538;BME280;18147;51.952;6.146;2023-04-15T07:31:10;101133.13;;;10.23;100.00
31538;BME280;18147;51.952;6.146;2023-04-15T07:33:36;101135.31;;;10.16;100.00
31538;BME280;18147;51.952;6.146;2023-04-15T07:36:02;101127.31;;;10.16;100.00
31538;BME280;18147;51.952;6.146;2023-04-15T07:38:28;101139.78;;;10.16;100.00
31538;BME280;18147;51.952;6.146;2023-04-15T07:40:54;101133.75;;;9.96;100.00
31538;BME280;18147;51.952;6.146;2023-04-15T07:43:21;101140.03;;;10.11;100.00
31538;BME280;18147;51.952;6.146;2023-04-15T07:45:46;101140.38;;;10.21;100.00
31538;BME280;18147;51.952;6.146;2023-04-15T07:48:12;101145.81;;;10.19;100.00
31538;BME280;18147;51.952;6.146;2023-04-15T07:50:38;101150.09;;;9.74;100.00
31538;BME280;18147;51.952;6.146;2023-04-15T07:53:03;101151.03;;;10.05;100.00
31538;BME280;18147;51.952;6.146;2023-04-15T07:55:31;101157.91;;;10.09;100.00
31538;BME280;18147;51.952;6.146;2023-04-15T07:57:58;101155.66;;;10.17;100.00
31538;BME280;18147;51.952;6.146;2023-04-15T08:00:23;101158.88;;;10.40;100.00
31538;BME280;18147;51.952;6.146;2023-04-15T08:02:49;101161.25;;;9.97;100.00
31538;BME280;18147;51.952;6.146;2023-04-15T08:05:17;101163.16;;;10.10;100.00
31538;BME280;18147;51.952;6.146;2023-04-15T08:07:44;101162.31;;;10.10;100.00
31538;BME280;18147;51.952;6.146;2023-04-15T08:10:11;101165.88;;;9.77;100.00
31538;BME280;18147;51.952;6.146;2023-04-15T08:12:38;101177.50;;;9.92;100.00
31538;BME280;18147;51.952;6.146;2023-04-15T08:15:05;101173.13;;;10.54;100.00
31538;BME280;18147;51.952;6.146;2023-04-15T08:17:35;101182.09;;;10.37;100.00
31538;BME280;18147;51.952;6.146;2023-04-15T08:20:06;101177.69;;;10.52;100.00
31538;BME280;18147;51.952;6.146;2023-04-15T08:22:31;101171.66;;;10.95;100.00
31538;BME280;18147;51.952;6.146;2023-04-15T08:24:57;101181.22;;;10.37;100.00
31538;BME280;18147;51.952;6.146;2023-04-15T08:27:23;101178.03;;;10.46;100.00
31538;BME280;18147;51.952;6.146;2023-04-15T08:29:50;101179.09;;;10.74;100.00
31538;BME280;18147;51.952;6.146;2023-04-15T08:32:16;101181.94;;;10.71;100.00
31538;BME280;18147;51.952;6.146;2023-04-15T08:34:42;101181.25;;;10.67;100.00
31538;BME280;18147;51.952;6.146;2023-04-15T08:37:08;101176.75;;;11.28;100.00
31538;BME280;18147;51.952;6.146;2023-04-15T08:39:34;101175.50;;;10.89;100.00
31538;BME280;18147;51.952;6.146;2023-04-15T08:42:03;101184.09;;;10.94;100.00
31538;BME280;18147;51.952;6.146;2023-04-15T08:44:34;101187.34;;;10.85;100.00
31538;BME280;18147;51.952;6.146;2023-04-15T08:47:02;101184.03;;;11.40;100.00
31538;BME280;18147;51.952;6.146;2023-04-15T08:49:29;101190.97;;;11.43;100.00
31538;BME280;18147;51.952;6.146;2023-04-15T08:51:59;101196.44;;;11.84;100.00
31538;BME280;18147;51.952;6.146;2023-04-15T08:54:26;101192.13;;;11.81;100.00
31538;BME280;18147;51.952;6.146;2023-04-15T08:56:52;101184.78;;;12.67;98.13
31538;BME280;18147;51.952;6.146;2023-04-15T08:59:20;101191.59;;;12.59;96.84
31538;BME280;18147;51.952;6.146;2023-04-15T09:01:48;101194.28;;;12.32;95.65
31538;BME280;18147;51.952;6.146;2023-04-15T09:04:17;101195.66;;;12.52;91.00
31538;BME280;18147;51.952;6.146;2023-04-15T09:06:43;101205.97;;;12.16;92.26
31538;BME280;18147;51.952;6.146;2023-04-15T09:09:09;101199.03;;;12.41;91.16
31538;BME280;18147;51.952;6.146;2023-04-15T09:11:35;101197.63;;;12.35;93.58
31538;BME280;18147;51.952;6.146;2023-04-15T09:14:02;101221.16;;;12.16;96.50
31538;BME280;18147;51.952;6.146;2023-04-15T09:16:29;101222.56;;;12.07;96.34
31538;BME280;18147;51.952;6.146;2023-04-15T09:18:59;101221.13;;;12.30;90.93
31538;BME280;18147;51.952;6.146;2023-04-15T09:21:25;101228.97;;;11.62;95.44
31538;BME280;18147;51.952;6.146;2023-04-15T09:23:58;101231.06;;;12.14;96.32
31538;BME280;18147;51.952;6.146;2023-04-15T09:26:34;101226.41;;;12.03;94.56
31538;BME280;18147;51.952;6.146;2023-04-15T09:29:09;101227.69;;;12.66;93.18
31538;BME280;18147;51.952;6.146;2023-04-15T09:31:42;101239.38;;;12.09;94.04
31538;BME280;18147;51.952;6.146;2023-04-15T09:34:08;101225.47;;;11.90;93.55
31538;BME280;18147;51.952;6.146;2023-04-15T09:36:51;101243.38;;;12.31;91.00
31538;BME280;18147;51.952;6.146;2023-04-15T09:39:19;101241.72;;;12.42;94.71
31538;BME280;18147;51.952;6.146;2023-04-15T09:41:45;101239.59;;;13.54;89.14
31538;BME280;18147;51.952;6.146;2023-04-15T09:44:27;101239.50;;;13.56;90.92
31538;BME280;18147;51.952;6.146;2023-04-15T09:46:54;101237.94;;;12.86;86.98
31538;BME280;18147;51.952;6.146;2023-04-15T09:49:21;101243.13;;;13.02;89.91
31538;BME280;18147;51.952;6.146;2023-04-15T09:51:47;101254.06;;;13.12;89.27
31538;BME280;18147;51.952;6.146;2023-04-15T09:54:18;101252.78;;;13.57;86.42
31538;BME280;18147;51.952;6.146;2023-04-15T09:56:45;101249.44;;;13.41;88.82
31538;BME280;18147;51.952;6.146;2023-04-15T09:59:13;101246.09;;;12.43;87.60
31538;BME280;18147;51.952;6.146;2023-04-15T10:01:41;101266.47;;;12.32;88.37
31538;BME280;18147;51.952;6.146;2023-04-15T10:04:08;101260.56;;;11.98;90.11
31538;BME280;18147;51.952;6.146;2023-04-15T10:06:34;101276.72;;;12.11;92.21
31538;BME280;18147;51.952;6.146;2023-04-15T10:09:01;101271.09;;;11.87;91.61
31538;BME280;18147;51.952;6.146;2023-04-15T10:11:31;101270.97;;;12.73;91.92
31538;BME280;18147;51.952;6.146;2023-04-15T11:18:32;101252.84;;;22.02;47.36
31538;BME280;18147;51.952;6.146;2023-04-15T11:21:03;101261.06;;;22.10;46.38
31538;BME280;18147;51.952;6.146;2023-04-15T11:26:17;62968.41;;;-144.64;100.00
31538;BME280;18147;51.952;6.146;2023-04-15T11:36:04;101265.81;;;22.42;47.49
31538;BME280;18147;51.952;6.146;2023-04-15T11:40:39;101257.28;;;22.29;47.89
31538;BME280;18147;51.952;6.146;2023-04-15T11:43:15;101268.94;;;22.21;47.75
31538;BME280;18147;51.952;6.146;2023-04-15T11:45:51;101269.13;;;22.28;47.39
31538;BME280;18147;51.952;6.146;2023-04-15T11:53:49;101332.50;;;18.56;56.36
31538;BME280;18147;51.952;6.146;2023-04-15T11:56:19;101331.91;;;18.74;57.10
31538;BME280;18147;51.952;6.146;2023-04-15T11:58:53;101330.13;;;18.63;57.54
31538;BME280;18147;51.952;6.146;2023-04-15T12:01:19;101329.91;;;18.45;58.60
31538;BME280;18147;51.952;6.146;2023-04-15T12:03:47;101338.72;;;18.37;58.56
31538;BME280;18147;51.952;6.146;2023-04-15T12:06:20;101339.97;;;18.33;58.99
31538;BME280;18147;51.952;6.146;2023-04-15T12:14:07;101357.84;;;18.04;60.34
31538;BME280;18147;51.952;6.146;2023-04-15T12:16:59;101362.06;;;18.18;60.14
31538;BME280;18147;51.952;6.146;2023-04-15T12:19:41;101365.59;;;18.18;60.03
31538;BME280;18147;51.952;6.146;2023-04-15T12:22:24;101366.91;;;18.24;60.08
31538;BME280;18147;51.952;6.146;2023-04-15T13:38:20;101435.34;;;12.83;86.46
31538;BME280;18147;51.952;6.146;2023-04-15T13:40:45;101451.50;;;12.81;84.59
31538;BME280;18147;51.952;6.146;2023-04-15T13:43:11;101440.78;;;12.67;88.75
31538;BME280;18147;51.952;6.146;2023-04-15T13:45:38;101445.00;;;12.71;90.51
31538;BME280;18147;51.952;6.146;2023-04-15T13:48:03;101452.72;;;12.33;86.45
31538;BME280;18147;51.952;6.146;2023-04-15T13:50:30;101453.78;;;12.73;83.14
31538;BME280;18147;51.952;6.146;2023-04-15T13:52:55;101444.31;;;13.10;88.18
31538;BME280;18147;51.952;6.146;2023-04-15T13:55:21;101477.25;;;12.25;84.71
31538;BME280;18147;51.952;6.146;2023-04-15T13:57:47;101473.81;;;12.37;86.62
31538;BME280;18147;51.952;6.146;2023-04-15T14:00:13;101495.19;;;11.93;91.28
31538;BME280;18147;51.952;6.146;2023-04-15T14:02:40;101480.78;;;12.26;93.26
31538;BME280;18147;51.952;6.146;2023-04-15T14:05:09;101483.22;;;12.59;88.19
31538;BME280;18147;51.952;6.146;2023-04-15T14:07:35;101489.03;;;12.37;86.91
31538;BME280;18147;51.952;6.146;2023-04-15T14:10:03;101485.19;;;12.27;87.53
31538;BME280;18147;51.952;6.146;2023-04-15T14:12:31;101502.13;;;12.41;89.97
31538;BME280;18147;51.952;6.146;2023-04-15T14:14:59;101503.69;;;12.15;93.14
31538;BME280;18147;51.952;6.146;2023-04-15T14:17:25;101509.69;;;11.89;95.17
31538;BME280;18147;51.952;6.146;2023-04-15T14:19:51;101515.59;;;12.40;91.33
31538;BME280;18147;51.952;6.146;2023-04-15T14:22:16;101518.56;;;12.19;92.34
31538;BME280;18147;51.952;6.146;2023-04-15T14:24:44;101520.16;;;12.38;90.60
31538;BME280;18147;51.952;6.146;2023-04-15T14:27:11;101524.66;;;12.07;92.84
31538;BME280;18147;51.952;6.146;2023-04-15T14:29:38;101532.28;;;12.43;88.55
31538;BME280;18147;51.952;6.146;2023-04-15T14:32:05;101525.97;;;11.84;89.18
31538;BME280;18147;51.952;6.146;2023-04-15T14:34:32;101537.78;;;11.64;96.03
31538;BME280;18147;51.952;6.146;2023-04-15T14:36:58;101537.34;;;11.72;94.45
31538;BME280;18147;51.952;6.146;2023-04-15T14:39:24;101534.50;;;11.59;97.74
31538;BME280;18147;51.952;6.146;2023-04-15T14:41:49;101542.84;;;11.69;100.00
31538;BME280;18147;51.952;6.146;2023-04-15T14:44:15;101535.63;;;11.71;97.94
31538;BME280;18147;51.952;6.146;2023-04-15T14:46:40;101535.03;;;11.66;100.00
31538;BME280;18147;51.952;6.146;2023-04-15T14:49:06;101542.88;;;11.53;100.00
31538;BME280;18147;51.952;6.146;2023-04-15T14:51:32;101549.34;;;11.81;98.83
31538;BME280;18147;51.952;6.146;2023-04-15T14:53:57;101564.69;;;11.12;100.00
31538;BME280;18147;51.952;6.146;2023-04-15T14:56:23;101569.31;;;11.26;100.00
31538;BME280;18147;51.952;6.146;2023-04-15T14:58:49;101562.59;;;11.35;100.00
31538;BME280;18147;51.952;6.146;2023-04-15T15:01:18;101570.31;;;11.39;100.00
31538;BME280;18147;51.952;6.146;2023-04-15T15:03:44;101578.41;;;11.22;100.00
31538;BME280;18147;51.952;6.146;2023-04-15T15:06:10;101568.47;;;11.08;100.00
31538;BME280;18147;51.952;6.146;2023-04-15T15:08:35;101580.81;;;10.60;100.00
31538;BME280;18147;51.952;6.146;2023-04-15T15:11:01;101580.59;;;10.98;100.00
31538;BME280;18147;51.952;6.146;2023-04-15T15:13:27;101575.66;;;10.91;100.00
31538;BME280;18147;51.952;6.146;2023-04-15T15:15:53;101573.97;;;11.54;100.00
31538;BME280;18147;51.952;6.146;2023-04-15T15:18:19;101584.94;;;11.50;100.00
31538;BME280;18147;51.952;6.146;2023-04-15T15:20:45;101588.78;;;10.95;100.00
31538;BME280;18147;51.952;6.146;2023-04-15T15:23:10;101591.06;;;10.68;100.00
31538;BME280;18147;51.952;6.146;2023-04-15T15:25:36;101588.63;;;11.63;100.00
31538;BME280;18147;51.952;6.146;2023-04-15T15:28:06;101588.47;;;11.98;100.00
31538;BME280;18147;51.952;6.146;2023-04-15T15:30:34;101588.19;;;12.18;97.69